sensor_id;sensor_type;location;lat;lon;timestamp;P1;durP1;ratioP1;P2;durP2;ratioP2
53925;SDS011;39836;52.754;6.866;2024-02-15T00:02:20;97.07;;;44.83;;
53925;SDS011;39836;52.754;6.866;2024-02-15T00:04:46;91.35;;;42.63;;
53925;SDS011;39836;52.754;6.866;2024-02-15T00:07:12;85.60;;;42.80;;
53925;SDS011;39836;52.754;6.866;2024-02-15T00:09:37;88.85;;;41.90;;
53925;SDS011;39836;52.754;6.866;2024-02-15T00:12:03;81.47;;;40.63;;
53925;SDS011;39836;52.754;6.866;2024-02-15T00:14:29;82.90;;;39.47;;
53925;SDS011;39836;52.754;6.866;2024-02-15T00:16:56;75.70;;;37.05;;
53925;SDS011;39836;52.754;6.866;2024-02-15T00:19:23;73.95;;;37.85;;
53925;SDS011;39836;52.754;6.866;2024-02-15T00:21:49;69.70;;;35.83;;
53925;SDS011;39836;52.754;6.866;2024-02-15T00:24:15;71.53;;;35.15;;
53925;SDS011;39836;52.754;6.866;2024-02-15T00:26:40;62.58;;;32.78;;
53925;SDS011;39836;52.754;6.866;2024-02-15T00:29:08;57.70;;;30.00;;
53925;SDS011;39836;52.754;6.866;2024-02-15T00:31:34;56.92;;;29.95;;
53925;SDS011;39836;52.754;6.866;2024-02-15T00:34:03;56.40;;;28.42;;
53925;SDS011;39836;52.754;6.866;2024-02-15T00:36:29;54.22;;;27.20;;
53925;SDS011;39836;52.754;6.866;2024-02-15T00:38:55;52.90;;;26.73;;
53925;SDS011;39836;52.754;6.866;2024-02-15T00:41:21;49.95;;;25.92;;
53925;SDS011;39836;52.754;6.866;2024-02-15T00:43:47;45.38;;;25.20;;
53925;SDS011;39836;52.754;6.866;2024-02-15T00:46:13;47.30;;;24.42;;
53925;SDS011;39836;52.754;6.866;2024-02-15T00:48:39;45.85;;;25.08;;
53925;SDS011;39836;52.754;6.866;2024-02-15T00:51:05;46.60;;;25.02;;
53925;SDS011;39836;52.754;6.866;2024-02-15T00:53:31;44.03;;;24.58;;
53925;SDS011;39836;52.754;6.866;2024-02-15T00:55:57;50.47;;;25.08;;
53925;SDS011;39836;52.754;6.866;2024-02-15T00:58:23;50.00;;;26.13;;
53925;SDS011;39836;52.754;6.866;2024-02-15T01:00:49;57.17;;;27.90;;
53925;SDS011;39836;52.754;6.866;2024-02-15T01:03:15;48.92;;;25.63;;
53925;SDS011;39836;52.754;6.866;2024-02-15T01:05:41;53.42;;;25.90;;
53925;SDS011;39836;52.754;6.866;2024-02-15T01:08:07;60.90;;;27.05;;
53925;SDS011;39836;52.754;6.866;2024-02-15T01:10:34;57.42;;;26.00;;
53925;SDS011;39836;52.754;6.866;2024-02-15T01:13:00;55.38;;;27.25;;
53925;SDS011;39836;52.754;6.866;2024-02-15T01:15:26;63.38;;;27.02;;
53925;SDS011;39836;52.754;6.866;2024-02-15T01:17:51;62.05;;;27.50;;
53925;SDS011;39836;52.754;6.866;2024-02-15T01:20:17;65.20;;;28.13;;
53925;SDS011;39836;52.754;6.866;2024-02-15T01:22:43;67.88;;;28.70;;
53925;SDS011;39836;52.754;6.866;2024-02-15T01:25:09;73.78;;;28.88;;
53925;SDS011;39836;52.754;6.866;2024-02-15T01:27:36;79.38;;;28.85;;
53925;SDS011;39836;52.754;6.866;2024-02-15T01:30:02;75.00;;;29.80;;
53925;SDS011;39836;52.754;6.866;2024-02-15T01:32:29;79.00;;;30.65;;
53925;SDS011;39836;52.754;6.866;2024-02-15T01:34:56;76.93;;;29.80;;
53925;SDS011;39836;52.754;6.866;2024-02-15T01:37:21;63.92;;;29.15;;
53925;SDS011;39836;52.754;6.866;2024-02-15T01:39:47;72.68;;;29.23;;
53925;SDS011;39836;52.754;6.866;2024-02-15T01:42:14;73.90;;;30.05;;
53925;SDS011;39836;52.754;6.866;2024-02-15T01:44:40;70.22;;;28.70;;
53925;SDS011;39836;52.754;6.866;2024-02-15T01:47:06;73.28;;;30.02;;
53925;SDS011;39836;52.754;6.866;2024-02-15T01:49:33;74.00;;;29.30;;
53925;SDS011;39836;52.754;6.866;2024-02-15T01:51:59;73.30;;;30.05;;
53925;SDS011;39836;52.754;6.866;2024-02-15T01:54:27;65.55;;;28.92;;
53925;SDS011;39836;52.754;6.866;2024-02-15T01:56:53;63.60;;;28.38;;
53925;SDS011;39836;52.754;6.866;2024-02-15T01:59:19;68.53;;;30.85;;
53925;SDS011;39836;52.754;6.866;2024-02-15T02:01:48;72.35;;;30.58;;
53925;SDS011;39836;52.754;6.866;2024-02-15T02:04:14;67.95;;;30.13;;
53925;SDS011;39836;52.754;6.866;2024-02-15T02:06:40;73.32;;;31.80;;
53925;SDS011;39836;52.754;6.866;2024-02-15T02:09:09;65.85;;;31.23;;
53925;SDS011;39836;52.754;6.866;2024-02-15T02:11:37;65.47;;;31.25;;
53925;SDS011;39836;52.754;6.866;2024-02-15T02:14:03;68.35;;;31.88;;
53925;SDS011;39836;52.754;6.866;2024-02-15T02:16:29;71.55;;;30.08;;
53925;SDS011;39836;52.754;6.866;2024-02-15T02:19:01;58.42;;;29.58;;
53925;SDS011;39836;52.754;6.866;2024-02-15T02:21:27;64.88;;;30.35;;
53925;SDS011;39836;52.754;6.866;2024-02-15T02:23:55;60.70;;;30.20;;
53925;SDS011;39836;52.754;6.866;2024-02-15T02:26:22;56.28;;;27.77;;
53925;SDS011;39836;52.754;6.866;2024-02-15T02:28:49;65.55;;;31.17;;
53925;SDS011;39836;52.754;6.866;2024-02-15T02:31:15;63.20;;;29.70;;
53925;SDS011;39836;52.754;6.866;2024-02-15T02:33:41;58.80;;;28.92;;
53925;SDS011;39836;52.754;6.866;2024-02-15T02:36:07;60.95;;;29.00;;
53925;SDS011;39836;52.754;6.866;2024-02-15T02:38:35;60.88;;;29.13;;
53925;SDS011;39836;52.754;6.866;2024-02-15T02:41:06;70.65;;;32.15;;
53925;SDS011;39836;52.754;6.866;2024-02-15T02:43:32;66.78;;;31.48;;
53925;SDS011;39836;52.754;6.866;2024-02-15T02:45:57;56.83;;;31.50;;
53925;SDS011;39836;52.754;6.866;2024-02-15T02:48:23;57.78;;;32.55;;
53925;SDS011;39836;52.754;6.866;2024-02-15T02:50:49;67.88;;;34.00;;
53925;SDS011;39836;52.754;6.866;2024-02-15T02:53:15;70.60;;;34.22;;
53925;SDS011;39836;52.754;6.866;2024-02-15T02:55:41;79.30;;;39.03;;
53925;SDS011;39836;52.754;6.866;2024-02-15T02:58:07;71.28;;;37.95;;
53925;SDS011;39836;52.754;6.866;2024-02-15T03:00:33;73.10;;;38.58;;
53925;SDS011;39836;52.754;6.866;2024-02-15T03:02:59;76.57;;;39.83;;
53925;SDS011;39836;52.754;6.866;2024-02-15T03:05:25;79.07;;;39.72;;
53925;SDS011;39836;52.754;6.866;2024-02-15T03:07:51;81.65;;;39.88;;
53925;SDS011;39836;52.754;6.866;2024-02-15T03:10:17;79.72;;;40.33;;
53925;SDS011;39836;52.754;6.866;2024-02-15T03:12:43;83.80;;;42.17;;
53925;SDS011;39836;52.754;6.866;2024-02-15T03:15:12;95.00;;;42.25;;
53925;SDS011;39836;52.754;6.866;2024-02-15T03:17:39;85.57;;;38.83;;
53925;SDS011;39836;52.754;6.866;2024-02-15T03:20:08;83.45;;;39.80;;
53925;SDS011;39836;52.754;6.866;2024-02-15T03:22:55;77.35;;;38.20;;
53925;SDS011;39836;52.754;6.866;2024-02-15T03:25:25;80.13;;;39.38;;
53925;SDS011;39836;52.754;6.866;2024-02-15T03:27:55;86.15;;;38.83;;
53925;SDS011;39836;52.754;6.866;2024-02-15T03:30:24;88.30;;;37.30;;
53925;SDS011;39836;52.754;6.866;2024-02-15T03:32:50;76.82;;;35.80;;
53925;SDS011;39836;52.754;6.866;2024-02-15T03:35:17;73.05;;;35.25;;
53925;SDS011;39836;52.754;6.866;2024-02-15T03:37:43;77.03;;;36.03;;
53925;SDS011;39836;52.754;6.866;2024-02-15T03:40:10;78.18;;;34.17;;
53925;SDS011;39836;52.754;6.866;2024-02-15T03:42:36;83.15;;;34.47;;
53925;SDS011;39836;52.754;6.866;2024-02-15T03:45:02;80.35;;;34.53;;
53925;SDS011;39836;52.754;6.866;2024-02-15T03:47:31;70.75;;;31.77;;
53925;SDS011;39836;52.754;6.866;2024-02-15T03:49:58;71.88;;;31.30;;
53925;SDS011;39836;52.754;6.866;2024-02-15T03:52:24;68.63;;;30.80;;
53925;SDS011;39836;52.754;6.866;2024-02-15T03:54:50;69.97;;;31.27;;
53925;SDS011;39836;52.754;6.866;2024-02-15T03:57:17;72.85;;;31.35;;
53925;SDS011;39836;52.754;6.866;2024-02-15T03:59:46;68.55;;;31.00;;
53925;SDS011;39836;52.754;6.866;2024-02-15T04:02:15;73.90;;;31.73;;
53925;SDS011;39836;52.754;6.866;2024-02-15T04:04:41;72.55;;;32.22;;
53925;SDS011;39836;52.754;6.866;2024-02-15T04:07:07;71.50;;;33.72;;
53925;SDS011;39836;52.754;6.866;2024-02-15T04:09:33;78.25;;;34.00;;
53925;SDS011;39836;52.754;6.866;2024-02-15T04:12:00;69.78;;;33.42;;
53925;SDS011;39836;52.754;6.866;2024-02-15T04:14:27;73.40;;;35.20;;
53925;SDS011;39836;52.754;6.866;2024-02-15T04:16:53;74.70;;;34.15;;
53925;SDS011;39836;52.754;6.866;2024-02-15T04:19:18;71.50;;;36.40;;
53925;SDS011;39836;52.754;6.866;2024-02-15T04:21:45;75.03;;;35.83;;
53925;SDS011;39836;52.754;6.866;2024-02-15T04:24:11;79.00;;;37.55;;
53925;SDS011;39836;52.754;6.866;2024-02-15T04:26:37;71.57;;;36.58;;
53925;SDS011;39836;52.754;6.866;2024-02-15T04:29:03;76.60;;;38.05;;
53925;SDS011;39836;52.754;6.866;2024-02-15T04:31:29;73.30;;;39.72;;
53925;SDS011;39836;52.754;6.866;2024-02-15T04:33:56;79.47;;;38.00;;
53925;SDS011;39836;52.754;6.866;2024-02-15T04:36:22;65.07;;;38.20;;
53925;SDS011;39836;52.754;6.866;2024-02-15T04:38:50;84.47;;;41.13;;
53925;SDS011;39836;52.754;6.866;2024-02-15T04:41:17;70.50;;;39.33;;
53925;SDS011;39836;52.754;6.866;2024-02-15T04:43:48;77.38;;;40.97;;
53925;SDS011;39836;52.754;6.866;2024-02-15T04:46:15;78.20;;;41.83;;
53925;SDS011;39836;52.754;6.866;2024-02-15T04:48:41;76.75;;;42.33;;
53925;SDS011;39836;52.754;6.866;2024-02-15T04:51:08;75.28;;;43.47;;
53925;SDS011;39836;52.754;6.866;2024-02-15T04:53:35;76.57;;;41.08;;
53925;SDS011;39836;52.754;6.866;2024-02-15T04:56:03;72.70;;;40.97;;
53925;SDS011;39836;52.754;6.866;2024-02-15T04:58:39;74.28;;;41.47;;
53925;SDS011;39836;52.754;6.866;2024-02-15T05:01:14;74.65;;;42.30;;
53925;SDS011;39836;52.754;6.866;2024-02-15T05:03:41;69.85;;;40.70;;
53925;SDS011;39836;52.754;6.866;2024-02-15T05:06:10;72.97;;;42.70;;
53925;SDS011;39836;52.754;6.866;2024-02-15T05:08:38;73.43;;;40.00;;
53925;SDS011;39836;52.754;6.866;2024-02-15T05:11:10;65.43;;;39.72;;
53925;SDS011;39836;52.754;6.866;2024-02-15T05:13:44;66.88;;;40.47;;
53925;SDS011;39836;52.754;6.866;2024-02-15T05:16:10;69.72;;;39.78;;
53925;SDS011;39836;52.754;6.866;2024-02-15T05:18:37;68.03;;;39.42;;
53925;SDS011;39836;52.754;6.866;2024-02-15T05:21:05;74.47;;;39.65;;
53925;SDS011;39836;52.754;6.866;2024-02-15T05:23:34;68.25;;;39.90;;
53925;SDS011;39836;52.754;6.866;2024-02-15T05:26:01;63.08;;;39.25;;
53925;SDS011;39836;52.754;6.866;2024-02-15T05:28:28;76.53;;;40.97;;
53925;SDS011;39836;52.754;6.866;2024-02-15T05:31:13;71.43;;;42.13;;
53925;SDS011;39836;52.754;6.866;2024-02-15T05:33:43;54.28;;;35.88;;
53925;SDS011;39836;52.754;6.866;2024-02-15T05:36:10;67.28;;;38.72;;
53925;SDS011;39836;52.754;6.866;2024-02-15T05:38:36;64.85;;;38.35;;
53925;SDS011;39836;52.754;6.866;2024-02-15T05:41:02;65.35;;;37.40;;
53925;SDS011;39836;52.754;6.866;2024-02-15T05:43:28;62.67;;;37.30;;
53925;SDS011;39836;52.754;6.866;2024-02-15T05:45:54;77.53;;;36.67;;
53925;SDS011;39836;52.754;6.866;2024-02-15T05:48:24;61.03;;;38.42;;
53925;SDS011;39836;52.754;6.866;2024-02-15T05:50:50;69.80;;;36.67;;
53925;SDS011;39836;52.754;6.866;2024-02-15T05:53:15;60.40;;;35.05;;
53925;SDS011;39836;52.754;6.866;2024-02-15T05:55:41;58.28;;;34.03;;
53925;SDS011;39836;52.754;6.866;2024-02-15T05:58:09;53.03;;;32.00;;
53925;SDS011;39836;52.754;6.866;2024-02-15T06:00:36;50.78;;;31.65;;
53925;SDS011;39836;52.754;6.866;2024-02-15T06:03:04;54.60;;;33.25;;
53925;SDS011;39836;52.754;6.866;2024-02-15T06:05:31;48.65;;;30.80;;
53925;SDS011;39836;52.754;6.866;2024-02-15T06:07:57;54.78;;;33.83;;
53925;SDS011;39836;52.754;6.866;2024-02-15T06:10:24;51.88;;;31.33;;
53925;SDS011;39836;52.754;6.866;2024-02-15T06:12:50;52.55;;;29.63;;
53925;SDS011;39836;52.754;6.866;2024-02-15T06:15:16;46.80;;;27.33;;
53925;SDS011;39836;52.754;6.866;2024-02-15T06:17:42;53.03;;;30.02;;
53925;SDS011;39836;52.754;6.866;2024-02-15T06:20:15;45.55;;;28.85;;
53925;SDS011;39836;52.754;6.866;2024-02-15T06:22:43;53.05;;;28.90;;
53925;SDS011;39836;52.754;6.866;2024-02-15T06:25:09;49.10;;;28.90;;
53925;SDS011;39836;52.754;6.866;2024-02-15T06:27:36;53.40;;;29.23;;
53925;SDS011;39836;52.754;6.866;2024-02-15T06:30:06;45.97;;;29.02;;
53925;SDS011;39836;52.754;6.866;2024-02-15T06:32:51;47.78;;;29.90;;
53925;SDS011;39836;52.754;6.866;2024-02-15T06:35:36;47.10;;;27.23;;
53925;SDS011;39836;52.754;6.866;2024-02-15T06:38:21;45.63;;;25.35;;
53925;SDS011;39836;52.754;6.866;2024-02-15T06:41:05;45.83;;;25.75;;
53925;SDS011;39836;52.754;6.866;2024-02-15T06:43:31;42.70;;;27.35;;
53925;SDS011;39836;52.754;6.866;2024-02-15T06:45:58;46.00;;;24.95;;
53925;SDS011;39836;52.754;6.866;2024-02-15T06:48:24;48.88;;;26.33;;
53925;SDS011;39836;52.754;6.866;2024-02-15T06:50:51;43.58;;;25.77;;
53925;SDS011;39836;52.754;6.866;2024-02-15T06:53:17;46.10;;;25.35;;
53925;SDS011;39836;52.754;6.866;2024-02-15T06:55:45;47.50;;;24.60;;
53925;SDS011;39836;52.754;6.866;2024-02-15T06:58:14;45.22;;;25.48;;
53925;SDS011;39836;52.754;6.866;2024-02-15T07:00:42;46.00;;;24.58;;
53925;SDS011;39836;52.754;6.866;2024-02-15T07:03:08;47.30;;;23.95;;
53925;SDS011;39836;52.754;6.866;2024-02-15T07:05:34;43.75;;;22.58;;
53925;SDS011;39836;52.754;6.866;2024-02-15T07:08:00;41.15;;;23.63;;
53925;SDS011;39836;52.754;6.866;2024-02-15T07:10:26;45.47;;;23.65;;
53925;SDS011;39836;52.754;6.866;2024-02-15T07:12:52;43.22;;;24.77;;
53925;SDS011;39836;52.754;6.866;2024-02-15T07:15:17;44.63;;;23.25;;
53925;SDS011;39836;52.754;6.866;2024-02-15T07:17:43;49.90;;;25.05;;
53925;SDS011;39836;52.754;6.866;2024-02-15T07:20:12;41.47;;;24.63;;
53925;SDS011;39836;52.754;6.866;2024-02-15T07:22:45;43.00;;;25.45;;
53925;SDS011;39836;52.754;6.866;2024-02-15T07:25:10;52.95;;;24.75;;
53925;SDS011;39836;52.754;6.866;2024-02-15T07:27:36;50.17;;;25.55;;
53925;SDS011;39836;52.754;6.866;2024-02-15T07:30:02;40.72;;;25.38;;
53925;SDS011;39836;52.754;6.866;2024-02-15T07:32:29;56.22;;;27.92;;
53925;SDS011;39836;52.754;6.866;2024-02-15T07:34:56;53.72;;;27.02;;
53925;SDS011;39836;52.754;6.866;2024-02-15T07:37:22;45.63;;;25.92;;
53925;SDS011;39836;52.754;6.866;2024-02-15T07:39:51;46.35;;;26.30;;
53925;SDS011;39836;52.754;6.866;2024-02-15T07:42:20;56.58;;;25.30;;
53925;SDS011;39836;52.754;6.866;2024-02-15T07:44:45;54.47;;;27.05;;
53925;SDS011;39836;52.754;6.866;2024-02-15T07:47:11;47.38;;;24.52;;
53925;SDS011;39836;52.754;6.866;2024-02-15T07:49:37;42.70;;;24.45;;
53925;SDS011;39836;52.754;6.866;2024-02-15T07:52:02;42.63;;;24.40;;
53925;SDS011;39836;52.754;6.866;2024-02-15T07:54:29;36.08;;;22.02;;
53925;SDS011;39836;52.754;6.866;2024-02-15T07:56:58;36.03;;;21.95;;
53925;SDS011;39836;52.754;6.866;2024-02-15T07:59:24;45.65;;;23.63;;
53925;SDS011;39836;52.754;6.866;2024-02-15T08:01:50;38.67;;;22.08;;
53925;SDS011;39836;52.754;6.866;2024-02-15T08:04:16;40.70;;;23.05;;
53925;SDS011;39836;52.754;6.866;2024-02-15T08:06:49;40.97;;;21.63;;
53925;SDS011;39836;52.754;6.866;2024-02-15T08:09:18;36.58;;;21.60;;
53925;SDS011;39836;52.754;6.866;2024-02-15T08:11:47;38.42;;;19.98;;
53925;SDS011;39836;52.754;6.866;2024-02-15T08:14:14;32.45;;;20.27;;
53925;SDS011;39836;52.754;6.866;2024-02-15T08:16:40;38.13;;;19.60;;
53925;SDS011;39836;52.754;6.866;2024-02-15T08:19:06;32.70;;;20.13;;
53925;SDS011;39836;52.754;6.866;2024-02-15T08:21:33;31.02;;;20.30;;
53925;SDS011;39836;52.754;6.866;2024-02-15T08:24:01;33.25;;;20.27;;
53925;SDS011;39836;52.754;6.866;2024-02-15T08:26:38;33.53;;;20.17;;
53925;SDS011;39836;52.754;6.866;2024-02-15T08:29:04;34.10;;;21.05;;
53925;SDS011;39836;52.754;6.866;2024-02-15T08:31:34;30.25;;;19.77;;
53925;SDS011;39836;52.754;6.866;2024-02-15T08:34:03;31.80;;;19.15;;
53925;SDS011;39836;52.754;6.866;2024-02-15T08:36:35;28.15;;;18.92;;
53925;SDS011;39836;52.754;6.866;2024-02-15T08:39:01;32.15;;;18.30;;
53925;SDS011;39836;52.754;6.866;2024-02-15T08:41:29;28.27;;;18.63;;
53925;SDS011;39836;52.754;6.866;2024-02-15T08:43:54;32.55;;;18.85;;
53925;SDS011;39836;52.754;6.866;2024-02-15T08:46:23;33.92;;;19.63;;
53925;SDS011;39836;52.754;6.866;2024-02-15T08:48:52;30.33;;;18.60;;
53925;SDS011;39836;52.754;6.866;2024-02-15T08:51:17;34.97;;;20.75;;
53925;SDS011;39836;52.754;6.866;2024-02-15T08:53:45;34.63;;;18.92;;
53925;SDS011;39836;52.754;6.866;2024-02-15T08:56:11;31.55;;;20.05;;
53925;SDS011;39836;52.754;6.866;2024-02-15T08:58:37;32.70;;;17.75;;
53925;SDS011;39836;52.754;6.866;2024-02-15T09:01:05;30.08;;;19.23;;
53925;SDS011;39836;52.754;6.866;2024-02-15T09:03:32;28.67;;;17.98;;
53925;SDS011;39836;52.754;6.866;2024-02-15T09:05:58;26.60;;;18.35;;
53925;SDS011;39836;52.754;6.866;2024-02-15T09:08:28;27.83;;;19.75;;
53925;SDS011;39836;52.754;6.866;2024-02-15T09:10:55;28.95;;;19.15;;
53925;SDS011;39836;52.754;6.866;2024-02-15T09:13:22;29.48;;;18.88;;
53925;SDS011;39836;52.754;6.866;2024-02-15T09:15:48;32.40;;;17.50;;
53925;SDS011;39836;52.754;6.866;2024-02-15T09:18:15;28.08;;;17.13;;
53925;SDS011;39836;52.754;6.866;2024-02-15T09:20:43;29.90;;;18.40;;
53925;SDS011;39836;52.754;6.866;2024-02-15T09:23:12;28.23;;;17.90;;
53925;SDS011;39836;52.754;6.866;2024-02-15T09:25:39;29.92;;;19.38;;
53925;SDS011;39836;52.754;6.866;2024-02-15T09:28:05;23.65;;;17.40;;
53925;SDS011;39836;52.754;6.866;2024-02-15T09:30:31;26.02;;;18.27;;
53925;SDS011;39836;52.754;6.866;2024-02-15T09:32:58;31.83;;;18.23;;
53925;SDS011;39836;52.754;6.866;2024-02-15T09:35:24;26.33;;;18.40;;
53925;SDS011;39836;52.754;6.866;2024-02-15T09:37:50;33.97;;;19.40;;
53925;SDS011;39836;52.754;6.866;2024-02-15T09:40:18;29.73;;;19.00;;
53925;SDS011;39836;52.754;6.866;2024-02-15T09:42:44;24.13;;;16.58;;
53925;SDS011;39836;52.754;6.866;2024-02-15T09:45:12;27.35;;;16.65;;
53925;SDS011;39836;52.754;6.866;2024-02-15T09:47:39;26.67;;;17.58;;
53925;SDS011;39836;52.754;6.866;2024-02-15T09:50:12;23.02;;;15.70;;
53925;SDS011;39836;52.754;6.866;2024-02-15T09:52:39;24.35;;;16.23;;
53925;SDS011;39836;52.754;6.866;2024-02-15T09:55:08;24.23;;;15.90;;
53925;SDS011;39836;52.754;6.866;2024-02-15T09:57:38;24.95;;;14.30;;
53925;SDS011;39836;52.754;6.866;2024-02-15T10:00:05;19.63;;;14.13;;
53925;SDS011;39836;52.754;6.866;2024-02-15T10:02:38;19.60;;;12.98;;
53925;SDS011;39836;52.754;6.866;2024-02-15T10:05:09;20.00;;;12.50;;
53925;SDS011;39836;52.754;6.866;2024-02-15T10:07:39;20.05;;;12.40;;
53925;SDS011;39836;52.754;6.866;2024-02-15T10:13:03;17.45;;;13.02;;
53925;SDS011;39836;52.754;6.866;2024-02-15T10:18:02;19.73;;;12.15;;
53925;SDS011;39836;52.754;6.866;2024-02-15T10:20:35;18.65;;;12.43;;
53925;SDS011;39836;52.754;6.866;2024-02-15T10:23:09;15.48;;;10.88;;
53925;SDS011;39836;52.754;6.866;2024-02-15T10:25:37;15.18;;;11.07;;
53925;SDS011;39836;52.754;6.866;2024-02-15T10:28:04;16.20;;;11.85;;
53925;SDS011;39836;52.754;6.866;2024-02-15T10:30:33;17.42;;;11.25;;
53925;SDS011;39836;52.754;6.866;2024-02-15T10:33:03;20.35;;;12.98;;
53925;SDS011;39836;52.754;6.866;2024-02-15T10:35:29;14.88;;;11.88;;
53925;SDS011;39836;52.754;6.866;2024-02-15T10:38:11;15.10;;;11.20;;
53925;SDS011;39836;52.754;6.866;2024-02-15T10:40:38;14.63;;;10.82;;
53925;SDS011;39836;52.754;6.866;2024-02-15T10:43:08;14.15;;;10.45;;
53925;SDS011;39836;52.754;6.866;2024-02-15T10:45:38;17.30;;;10.60;;
53925;SDS011;39836;52.754;6.866;2024-02-15T10:48:07;15.32;;;11.88;;
53925;SDS011;39836;52.754;6.866;2024-02-15T10:50:41;12.35;;;9.95;;
53925;SDS011;39836;52.754;6.866;2024-02-15T10:53:19;12.05;;;10.13;;
53925;SDS011;39836;52.754;6.866;2024-02-15T10:55:53;12.93;;;9.88;;
53925;SDS011;39836;52.754;6.866;2024-02-15T10:58:24;10.20;;;8.40;;
53925;SDS011;39836;52.754;6.866;2024-02-15T11:00:56;12.40;;;7.90;;
53925;SDS011;39836;52.754;6.866;2024-02-15T11:03:29;9.77;;;7.88;;
53925;SDS011;39836;52.754;6.866;2024-02-15T11:06:01;9.20;;;7.07;;
53925;SDS011;39836;52.754;6.866;2024-02-15T11:08:31;11.88;;;7.45;;
53925;SDS011;39836;52.754;6.866;2024-02-15T11:10:57;10.00;;;6.53;;
53925;SDS011;39836;52.754;6.866;2024-02-15T11:13:24;10.63;;;7.43;;
53925;SDS011;39836;52.754;6.866;2024-02-15T11:15:50;11.82;;;7.43;;
53925;SDS011;39836;52.754;6.866;2024-02-15T11:21:23;9.27;;;6.82;;
53925;SDS011;39836;52.754;6.866;2024-02-15T11:24:30;11.27;;;7.00;;
53925;SDS011;39836;52.754;6.866;2024-02-15T11:27:05;9.40;;;7.00;;
53925;SDS011;39836;52.754;6.866;2024-02-15T11:29:51;10.80;;;7.63;;
53925;SDS011;39836;52.754;6.866;2024-02-15T11:35:22;10.02;;;7.10;;
53925;SDS011;39836;52.754;6.866;2024-02-15T11:43:06;9.68;;;7.03;;
53925;SDS011;39836;52.754;6.866;2024-02-15T11:45:34;11.38;;;7.82;;
53925;SDS011;39836;52.754;6.866;2024-02-15T11:48:09;11.90;;;7.00;;
53925;SDS011;39836;52.754;6.866;2024-02-15T11:50:37;12.68;;;7.35;;
53925;SDS011;39836;52.754;6.866;2024-02-15T11:53:07;10.00;;;7.47;;
53925;SDS011;39836;52.754;6.866;2024-02-15T11:55:37;11.32;;;7.53;;
53925;SDS011;39836;52.754;6.866;2024-02-15T11:58:04;12.07;;;8.00;;
53925;SDS011;39836;52.754;6.866;2024-02-15T12:00:33;11.13;;;8.25;;
53925;SDS011;39836;52.754;6.866;2024-02-15T12:03:17;10.88;;;8.15;;
53925;SDS011;39836;52.754;6.866;2024-02-15T12:06:02;12.35;;;7.95;;
53925;SDS011;39836;52.754;6.866;2024-02-15T12:08:47;14.85;;;7.95;;
53925;SDS011;39836;52.754;6.866;2024-02-15T12:11:32;11.50;;;7.38;;
53925;SDS011;39836;52.754;6.866;2024-02-15T12:14:17;12.27;;;8.30;;
53925;SDS011;39836;52.754;6.866;2024-02-15T12:17:02;13.43;;;8.30;;
53925;SDS011;39836;52.754;6.866;2024-02-15T12:19:47;13.10;;;7.45;;
53925;SDS011;39836;52.754;6.866;2024-02-15T12:22:25;12.25;;;7.68;;
53925;SDS011;39836;52.754;6.866;2024-02-15T12:24:56;8.95;;;7.43;;
53925;SDS011;39836;52.754;6.866;2024-02-15T12:27:25;15.13;;;8.15;;
53925;SDS011;39836;52.754;6.866;2024-02-15T12:29:58;11.43;;;7.57;;
53925;SDS011;39836;52.754;6.866;2024-02-15T12:32:25;14.63;;;8.07;;
53925;SDS011;39836;52.754;6.866;2024-02-15T12:34:52;12.10;;;7.95;;
53925;SDS011;39836;52.754;6.866;2024-02-15T12:37:21;18.48;;;8.00;;
53925;SDS011;39836;52.754;6.866;2024-02-15T12:39:48;14.98;;;9.05;;
53925;SDS011;39836;52.754;6.866;2024-02-15T12:42:17;14.85;;;8.38;;
53925;SDS011;39836;52.754;6.866;2024-02-15T12:44:45;18.73;;;9.63;;
53925;SDS011;39836;52.754;6.866;2024-02-15T12:47:21;14.60;;;8.98;;
53925;SDS011;39836;52.754;6.866;2024-02-15T12:49:48;17.77;;;10.63;;
53925;SDS011;39836;52.754;6.866;2024-02-15T12:52:33;11.80;;;9.38;;
53925;SDS011;39836;52.754;6.866;2024-02-15T12:55:20;13.35;;;9.60;;
53925;SDS011;39836;52.754;6.866;2024-02-15T13:00:19;18.77;;;10.80;;
53925;SDS011;39836;52.754;6.866;2024-02-15T13:02:47;17.58;;;10.40;;
53925;SDS011;39836;52.754;6.866;2024-02-15T13:05:16;19.58;;;10.98;;
53925;SDS011;39836;52.754;6.866;2024-02-15T13:07:50;21.65;;;11.50;;
53925;SDS011;39836;52.754;6.866;2024-02-15T13:10:16;21.92;;;11.48;;
53925;SDS011;39836;52.754;6.866;2024-02-15T13:12:42;23.67;;;11.30;;
53925;SDS011;39836;52.754;6.866;2024-02-15T13:15:13;23.38;;;11.05;;
53925;SDS011;39836;52.754;6.866;2024-02-15T13:17:42;17.50;;;10.48;;
53925;SDS011;39836;52.754;6.866;2024-02-15T13:20:14;16.52;;;11.25;;
53925;SDS011;39836;52.754;6.866;2024-02-15T13:22:41;16.95;;;11.75;;
53925;SDS011;39836;52.754;6.866;2024-02-15T13:25:08;20.55;;;10.68;;
53925;SDS011;39836;52.754;6.866;2024-02-15T13:27:38;21.02;;;10.70;;
53925;SDS011;39836;52.754;6.866;2024-02-15T13:30:04;22.10;;;11.13;;
53925;SDS011;39836;52.754;6.866;2024-02-15T13:32:33;20.05;;;11.50;;
53925;SDS011;39836;52.754;6.866;2024-02-15T13:35:01;19.63;;;11.57;;
53925;SDS011;39836;52.754;6.866;2024-02-15T13:37:32;16.33;;;10.68;;
53925;SDS011;39836;52.754;6.866;2024-02-15T13:39:58;19.33;;;10.82;;
53925;SDS011;39836;52.754;6.866;2024-02-15T13:42:24;23.08;;;11.55;;
53925;SDS011;39836;52.754;6.866;2024-02-15T13:44:49;19.17;;;11.40;;
53925;SDS011;39836;52.754;6.866;2024-02-15T13:47:15;19.02;;;11.90;;
53925;SDS011;39836;52.754;6.866;2024-02-15T13:49:41;19.85;;;11.73;;
53925;SDS011;39836;52.754;6.866;2024-02-15T13:52:08;18.90;;;12.43;;
53925;SDS011;39836;52.754;6.866;2024-02-15T13:54:36;21.98;;;11.27;;
53925;SDS011;39836;52.754;6.866;2024-02-15T13:57:02;19.73;;;11.55;;
53925;SDS011;39836;52.754;6.866;2024-02-15T13:59:28;18.00;;;10.65;;
53925;SDS011;39836;52.754;6.866;2024-02-15T14:01:57;17.73;;;12.15;;
53925;SDS011;39836;52.754;6.866;2024-02-15T14:04:23;18.15;;;11.80;;
53925;SDS011;39836;52.754;6.866;2024-02-15T14:06:49;17.55;;;11.30;;
53925;SDS011;39836;52.754;6.866;2024-02-15T14:09:14;20.38;;;12.48;;
53925;SDS011;39836;52.754;6.866;2024-02-15T14:11:42;30.00;;;13.93;;
53925;SDS011;39836;52.754;6.866;2024-02-15T14:14:08;23.70;;;13.70;;
53925;SDS011;39836;52.754;6.866;2024-02-15T14:16:34;18.92;;;12.90;;
53925;SDS011;39836;52.754;6.866;2024-02-15T14:18:59;20.42;;;13.20;;
53925;SDS011;39836;52.754;6.866;2024-02-15T14:21:28;26.48;;;14.48;;
53925;SDS011;39836;52.754;6.866;2024-02-15T14:23:57;28.30;;;12.90;;
53925;SDS011;39836;52.754;6.866;2024-02-15T14:26:22;32.58;;;13.25;;
53925;SDS011;39836;52.754;6.866;2024-02-15T14:28:52;22.88;;;13.98;;
53925;SDS011;39836;52.754;6.866;2024-02-15T14:31:17;20.25;;;13.90;;
53925;SDS011;39836;52.754;6.866;2024-02-15T14:34:02;19.05;;;12.85;;
53925;SDS011;39836;52.754;6.866;2024-02-15T14:36:27;24.50;;;13.27;;
53925;SDS011;39836;52.754;6.866;2024-02-15T14:38:53;23.25;;;13.38;;
53925;SDS011;39836;52.754;6.866;2024-02-15T14:41:19;23.80;;;14.70;;
53925;SDS011;39836;52.754;6.866;2024-02-15T14:43:46;27.20;;;13.55;;
53925;SDS011;39836;52.754;6.866;2024-02-15T14:46:11;18.40;;;11.98;;
53925;SDS011;39836;52.754;6.866;2024-02-15T14:48:37;20.70;;;12.05;;
53925;SDS011;39836;52.754;6.866;2024-02-15T14:51:06;17.80;;;11.70;;